Latest Weather Observations for Noarlunga

IDS60801

Issued at 3:31 pm CST Saturday 28 May 2016 (issued every 30 minutes, with the page automatically refreshed every 10 minutes)

About weather observations | Map of weather stations | Latest weather observations for SA | Other Formats
Station Details ID: 023885 Name: NOARLUNGA Lat: -35.16 Lon: 138.51 Height: 55.0 m
Data from the previous 72 hours. | See also: Recent months at Noarlunga
Date/Time
CST
Temp
°C
App
Temp
°C
Dew
Point
Rel
Hum
%
Delta-T
°C
Wind Press
QNH
hPa
Press
MSL
hPa
Rain
since 9 am
mm
Dir
 
Spd
km/h
Gust
km/h
Spd
kts
Gust
kts
28/03:30pm 14.8 12.4 6.9 59 3.9 SE 9 13 5 7 - - 0.0
28/03:00pm 14.4 11.0 7.7 64 3.3 SSE 15 20 8 11 - - 0.0
28/02:30pm 15.2 12.2 7.7 61 3.7 SSE 13 19 7 10 - - 0.0
28/02:00pm 15.9 13.5 7.1 56 4.4 SSE 9 15 5 8 - - 0.0
28/01:30pm 16.1 14.1 7.3 56 4.4 ESE 7 13 4 7 - - 0.0
28/01:00pm 15.3 13.3 7.3 59 4.0 SE 7 11 4 6 - - 0.0
28/12:30pm 14.6 12.2 7.2 61 3.6 SE 9 15 5 8 - - 0.0
28/12:00pm 15.1 12.3 6.9 58 4.0 SE 11 17 6 9 - - 0.0
28/11:30am 15.1 13.4 7.4 60 3.8 ESE 6 9 3 5 - - 0.0
28/11:00am 15.8 12.8 7.8 59 4.0 SE 13 19 7 10 - - 0.0
28/10:30am 15.0 12.3 7.5 61 3.7 ESE 11 17 6 9 - - 0.0
28/10:00am 14.4 11.9 8.1 66 3.2 SE 11 19 6 10 - - 0.0
28/09:30am 13.7 10.4 7.9 68 2.9 ESE 15 20 8 11 - - 0.0
28/09:00am 13.0 10.0 7.7 70 2.6 SE 13 19 7 10 - - 6.0
28/08:30am 12.5 10.0 8.2 75 2.1 SE 11 15 6 8 - - 6.0
28/08:00am 11.5 9.3 8.0 79 1.7 SE 9 13 5 7 - - 6.0
28/07:30am 11.3 9.1 8.0 80 1.6 SSE 9 15 5 8 - - 6.0
28/07:00am 11.6 7.6 8.1 79 1.7 SSE 19 28 10 15 - - 6.0
28/06:30am 11.2 9.2 8.6 84 1.3 SSE 9 11 5 6 - - 6.0
28/06:00am 11.4 8.6 8.6 83 1.4 SSE 13 15 7 8 - - 6.0
28/05:30am 12.1 9.1 9.3 83 1.4 S 15 22 8 12 - - 6.0
28/05:00am 12.0 9.8 9.4 84 1.3 SSW 11 22 6 12 - - 6.0
28/04:30am 12.6 10.5 9.8 83 1.4 SSW 11 17 6 9 - - 6.0
28/04:00am 12.4 10.7 9.8 84 1.3 SW 9 17 5 9 - - 6.0
28/03:30am 11.8 10.4 9.0 83 1.4 SSW 6 9 3 5 - - 6.0
28/03:00am 12.7 10.5 9.5 81 1.6 SW 11 17 6 9 - - 6.0
28/02:30am 12.9 10.2 9.0 77 2.0 SW 13 22 7 12 - - 6.0
28/02:00am 13.0 9.8 8.5 74 2.2 SW 15 22 8 12 - - 6.0
28/01:30am 13.2 9.9 8.1 71 2.5 WSW 15 24 8 13 - - 6.0
28/01:00am 12.5 10.1 7.2 70 2.6 WSW 9 15 5 8 - - 6.0
28/12:30am 12.7 9.2 7.0 68 2.8 WSW 15 24 8 13 - - 6.0
28/12:00am 12.6 8.9 6.4 66 3.0 WSW 15 22 8 12 - - 6.0
 
Date/Time
CST
Temp
°C
App
Temp
°C
Dew
Point
Rel
Hum
%
Delta-T
°C
Wind Press
QNH
hPa
Press
MSL
hPa
Rain
since 9 am
mm
Dir
 
Spd
km/h
Gust
km/h
Spd
kts
Gust
kts
27/11:30pm 13.0 8.9 6.4 64 3.2 WSW 17 28 9 15 - - 6.0
27/11:00pm 13.2 8.7 6.3 63 3.3 WSW 19 32 10 17 - - 6.0
27/10:30pm 11.6 10.1 8.3 80 1.6 SW 6 22 3 12 - - 6.0
27/10:00pm 11.7 9.9 7.8 77 1.9 SW 7 17 4 9 - - 6.0
27/09:30pm 11.6 8.5 7.3 75 2.1 SW 13 20 7 11 - - 6.0
27/09:00pm 11.3 9.0 7.6 78 1.8 SW 9 17 5 9 - - 6.0
27/08:30pm 10.9 7.0 7.2 78 1.8 SW 17 32 9 17 - - 6.0
27/08:00pm 10.1 6.0 7.7 85 1.2 SSW 19 33 10 18 - - 5.8
27/07:30pm 11.3 5.4 7.4 77 1.9 SW 28 48 15 26 - - 3.6
27/07:00pm 11.6 5.9 6.5 71 2.4 SW 26 48 14 26 - - 3.4
27/06:36pm 12.7 6.6 6.5 66 3.0 WSW 28 46 15 25 - - 3.4
27/06:30pm 12.5 6.0 6.5 67 2.9 WSW 30 46 16 25 - - 3.4
27/06:00pm 12.5 6.5 7.2 70 2.6 WSW 28 48 15 26 - - 3.4
27/05:58pm 12.5 6.5 7.0 69 2.7 WSW 28 48 15 26 - - 3.4
27/05:30pm 12.6 6.8 6.4 66 3.0 WSW 26 46 14 25 - - 3.4
27/05:00pm 12.5 6.8 5.0 60 3.5 WSW 24 44 13 24 - - 3.4
27/04:30pm 12.7 6.3 5.1 60 3.5 WSW 28 46 15 25 - - 3.4
27/04:23pm 13.0 6.6 5.2 59 3.6 W 28 46 15 25 - - 3.4
27/04:00pm 12.6 7.0 5.5 62 3.3 W 24 37 13 20 - - 3.4
27/03:30pm 12.0 6.9 7.7 75 2.1 W 24 43 13 23 - - 3.4
27/03:01pm 12.5 6.2 5.9 64 3.1 W 28 56 15 30 - - 3.2
27/03:00pm 12.7 6.9 6.1 64 3.1 W 26 56 14 30 - - 3.2
27/02:30pm 13.0 9.1 7.2 68 2.8 W 17 32 9 17 - - 3.2
27/02:00pm 12.1 8.2 7.0 71 2.5 W 17 28 9 15 - - 3.2
27/01:30pm 10.8 7.3 7.3 79 1.7 WSW 15 28 8 15 - - 3.2
27/01:00pm 10.7 4.5 7.9 83 1.4 WSW 30 54 16 29 - - 3.0
27/12:30pm 12.1 6.0 8.4 78 1.8 WNW 30 57 16 31 - - 1.2
27/12:28pm 12.9 7.4 9.2 78 1.9 WNW 28 50 15 27 - - 0.8
27/12:00pm 13.0 9.1 8.7 75 2.2 WNW 19 32 10 17 - - 0.8
27/11:30am 12.1 6.4 8.2 77 1.9 WNW 28 50 15 27 - - 0.4
27/11:29am 12.3 6.6 8.4 77 1.9 WNW 28 50 15 27 - - 0.4
27/11:00am 14.6 10.7 9.6 72 2.6 NW 20 33 11 18 - - 0.0
27/10:30am 15.1 10.8 9.2 68 3.0 WNW 22 41 12 22 - - 0.0
27/10:00am 15.6 11.6 9.1 65 3.3 NW 20 32 11 17 - - 0.0
27/09:30am 14.7 10.2 9.9 73 2.5 NW 24 37 13 20 - - 0.0
27/09:00am 14.4 9.9 10.0 75 2.3 WNW 24 41 13 22 - - 4.6
27/08:30am 13.7 10.1 10.5 81 1.7 NW 20 35 11 19 - - 4.6
27/08:00am 13.0 9.9 10.2 83 1.4 NW 17 32 9 17 - - 4.6
27/07:30am 12.2 5.6 7.7 74 2.2 WNW 32 56 17 30 - - 3.4
27/07:00am 14.3 8.6 9.7 74 2.4 NW 30 50 16 27 - - 1.0
27/06:49am 14.4 9.0 9.6 73 2.5 NW 28 52 15 28 - - 1.0
27/06:30am 14.2 9.1 9.2 72 2.6 NW 26 41 14 22 - - 1.0
27/06:00am 13.3 7.6 9.9 80 1.8 WNW 30 50 16 27 - - 1.0
27/05:33am 14.8 9.9 11.2 79 1.9 NW 28 46 15 25 - - 1.0
27/05:30am 14.8 10.2 11.0 78 2.0 NW 26 41 14 22 - - 1.0
27/05:00am 14.7 10.9 11.3 80 1.8 NW 22 37 12 20 - - 1.0
27/04:30am 14.6 10.8 11.0 79 1.9 NW 22 39 12 21 - - 1.0
27/04:00am 14.3 10.8 10.9 80 1.8 NW 20 32 11 17 - - 1.0
27/03:30am 14.1 11.0 10.3 78 2.0 NNW 17 28 9 15 - - 0.8
27/03:00am 13.9 11.2 10.5 80 1.8 NNW 15 26 8 14 - - 0.8
27/02:30am 14.0 10.9 10.4 79 1.9 NW 17 28 9 15 - - 0.8
27/02:00am 14.0 12.1 10.4 79 1.9 NW 11 19 6 10 - - 0.6
27/01:30am 13.8 11.8 10.0 78 2.0 NW 11 19 6 10 - - 0.6
27/01:00am 13.6 11.9 10.0 79 1.9 NW 9 17 5 9 - - 0.6
27/12:30am 13.6 11.9 9.8 78 2.0 NW 9 13 5 7 - - 0.6
27/12:00am 13.2 11.6 8.9 75 2.2 NW 7 11 4 6 - - 0.6
 
Date/Time
CST
Temp
°C
App
Temp
°C
Dew
Point
Rel
Hum
%
Delta-T
°C
Wind Press
QNH
hPa
Press
MSL
hPa
Rain
since 9 am
mm
Dir
 
Spd
km/h
Gust
km/h
Spd
kts
Gust
kts
26/11:30pm 13.2 12.4 9.8 80 1.7 WNW 4 6 2 3 - - 0.6
26/11:00pm 13.1 11.9 9.7 80 1.7 SW 6 11 3 6 - - 0.6
26/10:30pm 14.2 12.1 9.6 74 2.4 WNW 11 20 6 11 - - 0.0
26/10:00pm 13.8 12.1 10.0 78 2.0 NW 9 13 5 7 - - 0.0
26/09:30pm 14.2 12.3 9.0 71 2.6 W 9 17 5 9 - - 0.0
26/09:00pm 14.0 12.9 9.8 76 2.2 WNW 6 9 3 5 - - 0.0
26/08:30pm 13.7 11.1 9.2 74 2.3 NW 13 20 7 11 - - 0.0
26/08:00pm 14.6 11.9 8.8 68 2.9 W 13 20 7 11 - - 0.0
26/07:30pm 14.9 12.2 9.1 68 3.0 W 13 20 7 11 - - 0.0
26/07:00pm 14.6 12.6 8.8 68 2.9 W 9 19 5 10 - - 0.0
26/06:30pm 14.4 12.4 8.6 68 2.9 W 9 13 5 7 - - 0.0
26/06:00pm 14.3 12.9 8.7 69 2.8 W 6 13 3 7 - - 0.0
26/05:30pm 14.3 12.3 8.5 68 2.9 W 9 15 5 8 - - 0.0
26/05:00pm 15.1 13.4 8.3 64 3.4 W 7 13 4 7 - - 0.0
26/04:30pm 15.3 13.3 8.5 64 3.5 WSW 9 15 5 8 - - 0.0
26/04:00pm 16.1 13.6 8.1 59 4.0 W 11 19 6 10 - - 0.0
26/03:30pm 16.0 13.0 7.7 58 4.2 W 13 19 7 10 - - 0.0
26/03:00pm 16.0 12.7 8.0 59 4.0 WSW 15 22 8 12 - - 0.0
26/02:30pm 16.1 12.9 8.3 60 4.0 WSW 15 22 8 12 - - 0.0
26/02:00pm 15.9 12.9 7.9 59 4.0 WSW 13 20 7 11 - - 0.0
26/01:30pm 16.0 12.6 7.5 57 4.2 W 15 20 8 11 - - 0.0
26/01:00pm 15.8 12.0 7.6 58 4.1 W 17 24 9 13 - - 0.0
26/12:30pm 15.9 12.3 8.2 60 3.9 WSW 17 24 9 13 - - 0.0
26/12:00pm 15.6 12.4 8.4 62 3.7 WSW 15 22 8 12 - - 0.0
26/11:30am 15.6 12.9 9.1 65 3.3 WSW 13 19 7 10 - - 0.0
26/11:00am 14.8 12.5 9.0 68 3.0 SW 11 17 6 9 - - 0.0
26/10:30am 14.8 12.1 9.0 68 3.0 SW 13 20 7 11 - - 0.0
26/10:00am 15.1 13.8 10.1 72 2.6 SW 7 13 4 7 - - 0.0
26/09:30am 14.3 12.9 9.7 74 2.4 S 7 11 4 6 - - 0.0
26/09:00am 13.3 12.5 9.7 79 1.8 SSE 4 7 2 4 - - 13.4
26/08:30am 12.6 12.4 10.3 86 1.2 ESE 2 4 1 2 - - 13.4
26/08:00am 11.3 10.8 9.2 87 1.1 SSE 2 2 1 1 - - 13.4
26/07:30am 11.9 10.6 9.8 87 1.1 S 7 15 4 8 - - 13.4
26/07:00am 12.2 11.1 10.1 87 1.1 SW 6 11 3 6 - - 11.0
26/06:30am 12.0 11.7 10.1 88 1.0 SSW 2 4 1 2 - - 11.0
26/06:00am 12.3 12.1 10.4 88 1.0 S 2 2 1 1 - - 11.0
26/05:30am 12.3 11.7 10.4 88 1.0 SSW 4 6 2 3 - - 11.0
26/05:00am 12.3 11.7 10.5 89 0.9 S 4 6 2 3 - - 11.0
26/04:30am 12.3 11.4 10.7 90 0.8 S 6 9 3 5 - - 10.8
26/04:00am 12.5 12.0 10.9 90 0.8 SSE 4 4 2 2 - - 10.8
26/03:30am 12.7 12.3 11.1 90 0.8 SSE 4 6 2 3 - - 10.8
26/03:00am 13.0 12.3 11.4 90 0.8 SW 6 9 3 5 - - 10.8
26/02:30am 13.0 12.7 11.4 90 0.8 S 4 6 2 3 - - 10.8
26/02:00am 13.5 13.7 11.9 90 0.9 SSW 2 4 1 2 - - 10.8
26/01:30am 13.9 14.2 12.3 90 0.9 WSW 2 4 1 2 - - 10.8
26/01:00am 14.0 14.4 12.4 90 0.9 S 2 6 1 3 - - 10.8
26/12:30am 14.3 14.4 12.7 90 0.9 SSW 4 7 2 4 - - 10.8
26/12:00am 14.5 13.4 13.0 91 0.8 WSW 11 20 6 11 - - 10.2
 
Date/Time
CST
Temp
°C
App
Temp
°C
Dew
Point
Rel
Hum
%
Delta-T
°C
Wind Press
QNH
hPa
Press
MSL
hPa
Rain
since 9 am
mm
Dir
 
Spd
km/h
Gust
km/h
Spd
kts
Gust
kts
25/11:30pm 13.5 12.8 11.9 90 0.9 N 7 13 4 7 - - 6.8
25/11:00pm 13.6 12.1 12.0 90 0.9 NNE 11 17 6 9 - - 5.4
25/10:30pm 13.6 12.1 12.0 90 0.9 NE 11 17 6 9 - - 5.4
25/10:00pm 13.7 12.6 12.1 90 0.9 NNE 9 13 5 7 - - 5.2
25/09:30pm 14.0 12.7 12.4 90 0.9 NNE 11 17 6 9 - - 5.2
25/09:00pm 14.6 12.7 13.0 90 0.9 NNW 15 22 8 12 - - 5.0
25/08:30pm 14.5 12.6 12.9 90 0.9 NNW 15 22 8 12 - - 4.8
25/08:00pm 14.6 12.3 13.0 90 0.9 NNW 17 26 9 14 - - 4.6
25/07:30pm 14.7 12.3 12.7 88 1.1 NNW 17 26 9 14 - - 3.8
25/07:00pm 14.6 12.2 12.6 88 1.1 NNW 17 26 9 14 - - 3.2
25/06:30pm 14.5 12.1 12.5 88 1.1 NNW 17 24 9 13 - - 3.2
25/06:00pm 14.6 11.1 12.3 86 1.3 NNW 22 32 12 17 - - 3.2
25/05:30pm 14.9 10.9 11.9 82 1.6 NNW 24 35 13 19 - - 2.8
25/05:00pm 14.8 11.2 11.8 82 1.6 NNW 22 35 12 19 - - 2.8
25/04:30pm 14.8 9.9 11.4 80 1.8 NNW 28 43 15 23 - - 2.8
25/04:00pm 14.9 10.6 11.9 82 1.6 NNW 26 37 14 20 - - 2.8

Other Formats:

Comma delimited format used in spreadsheet applications
http://www.bom.gov.au/fwo/IDS60801/IDS60801.94808.axf

JavaScript Object Notation format (JSON) in row-major order
http://www.bom.gov.au/fwo/IDS60801/IDS60801.94808.json